Terminal Aerodrome Forecast
Issued by NWS Albany, NY

Home | Current Version | Previous Version | Text Only | Print | Product List | Glossary On
Versions: 1 2 3 4 5 6 7 8 9 10 11 12 13 14 15 16
000
FTUS41 KALY 301100
TAFALB
TAF
KALB 301132Z 3012/3112 26005KT P6SM SCT030 OVC070
     FM301400 29004KT P6SM OVC060
     FM301700 30007KT P6SM BKN050
     FM310200 33004KT P6SM SCT050 SCT250
     FM310600 VRB03KT P6SM BKN250=

USA.gov is the U.S. government's official web portal to all federal, state and local government web resources and services.